sensor_id;sensor_type;location;lat;lon;timestamp;pressure;altitude;pressure_sealevel;temperature;humidity
45991;BME280;31721;41.740;-88.000;2023-05-16T00:02:13;99472.26;;;20.12;23.26
45991;BME280;31721;41.740;-88.000;2023-05-16T00:04:41;99469.06;;;20.17;23.39
45991;BME280;31721;41.740;-88.000;2023-05-16T00:07:09;99464.70;;;20.13;22.35
45991;BME280;31721;41.740;-88.000;2023-05-16T00:09:36;99461.94;;;20.10;22.48
45991;BME280;31721;41.740;-88.000;2023-05-16T00:12:05;99460.36;;;20.05;22.38
45991;BME280;31721;41.740;-88.000;2023-05-16T00:14:33;99459.44;;;20.02;22.58
45991;BME280;31721;41.740;-88.000;2023-05-16T00:17:01;99458.32;;;19.88;22.80
45991;BME280;31721;41.740;-88.000;2023-05-16T00:19:28;99458.64;;;19.99;22.83
45991;BME280;31721;41.740;-88.000;2023-05-16T00:21:56;99456.57;;;19.86;22.64
45991;BME280;31721;41.740;-88.000;2023-05-16T00:24:24;99452.99;;;19.79;22.37
45991;BME280;31721;41.740;-88.000;2023-05-16T00:26:52;99445.57;;;19.83;22.19
45991;BME280;31721;41.740;-88.000;2023-05-16T00:29:20;99442.34;;;19.77;22.66
45991;BME280;31721;41.740;-88.000;2023-05-16T00:31:48;99443.36;;;19.64;22.77
45991;BME280;31721;41.740;-88.000;2023-05-16T00:34:16;99440.99;;;19.59;22.45
45991;BME280;31721;41.740;-88.000;2023-05-16T00:36:44;99442.37;;;19.60;22.15
45991;BME280;31721;41.740;-88.000;2023-05-16T00:39:11;99442.28;;;19.42;22.25
45991;BME280;31721;41.740;-88.000;2023-05-16T00:41:40;99441.18;;;19.41;22.37
45991;BME280;31721;41.740;-88.000;2023-05-16T00:44:07;99438.94;;;19.26;22.51
45991;BME280;31721;41.740;-88.000;2023-05-16T00:46:36;99433.34;;;19.24;22.34
45991;BME280;31721;41.740;-88.000;2023-05-16T00:49:04;99432.88;;;19.17;22.58
45991;BME280;31721;41.740;-88.000;2023-05-16T00:51:33;99429.28;;;19.05;22.35
45991;BME280;31721;41.740;-88.000;2023-05-16T00:54:01;99434.99;;;18.97;22.22
45991;BME280;31721;41.740;-88.000;2023-05-16T00:56:30;99432.69;;;18.98;22.26
45991;BME280;31721;41.740;-88.000;2023-05-16T00:58:59;99436.36;;;18.91;22.98
45991;BME280;31721;41.740;-88.000;2023-05-16T01:01:27;99430.19;;;18.81;22.76
45991;BME280;31721;41.740;-88.000;2023-05-16T01:03:56;99428.56;;;18.79;22.79
45991;BME280;31721;41.740;-88.000;2023-05-16T01:06:23;99427.97;;;18.70;22.86
45991;BME280;31721;41.740;-88.000;2023-05-16T01:08:51;99424.82;;;18.55;23.41
45991;BME280;31721;41.740;-88.000;2023-05-16T01:11:24;99421.06;;;18.52;23.18
45991;BME280;31721;41.740;-88.000;2023-05-16T01:14:02;99423.78;;;18.44;23.48
45991;BME280;31721;41.740;-88.000;2023-05-16T01:16:38;99421.48;;;18.38;23.25
45991;BME280;31721;41.740;-88.000;2023-05-16T01:19:27;99420.81;;;18.19;23.92
45991;BME280;31721;41.740;-88.000;2023-05-16T01:22:02;99415.13;;;18.17;24.15
45991;BME280;31721;41.740;-88.000;2023-05-16T01:24:40;99413.72;;;18.10;24.48
45991;BME280;31721;41.740;-88.000;2023-05-16T01:27:11;99408.11;;;17.92;24.20
45991;BME280;31721;41.740;-88.000;2023-05-16T01:29:40;99411.51;;;17.94;24.40
45991;BME280;31721;41.740;-88.000;2023-05-16T01:32:08;99411.12;;;17.94;24.39
45991;BME280;31721;41.740;-88.000;2023-05-16T01:34:36;99410.51;;;17.81;24.60
45991;BME280;31721;41.740;-88.000;2023-05-16T01:37:11;99409.95;;;17.72;24.86
45991;BME280;31721;41.740;-88.000;2023-05-16T01:39:44;99407.94;;;17.61;24.72
45991;BME280;31721;41.740;-88.000;2023-05-16T01:42:14;99405.88;;;17.55;25.27
45991;BME280;31721;41.740;-88.000;2023-05-16T01:44:45;99400.33;;;17.44;25.31
45991;BME280;31721;41.740;-88.000;2023-05-16T01:47:16;99397.59;;;17.35;25.51
45991;BME280;31721;41.740;-88.000;2023-05-16T01:49:50;99402.83;;;17.28;25.62
45991;BME280;31721;41.740;-88.000;2023-05-16T01:52:26;99406.80;;;17.20;26.07
45991;BME280;31721;41.740;-88.000;2023-05-16T01:54:57;99404.34;;;17.16;25.77
45991;BME280;31721;41.740;-88.000;2023-05-16T01:57:26;99399.56;;;17.00;25.89
45991;BME280;31721;41.740;-88.000;2023-05-16T01:59:56;99400.30;;;16.88;25.78
45991;BME280;31721;41.740;-88.000;2023-05-16T02:02:24;99397.69;;;16.86;25.94
45991;BME280;31721;41.740;-88.000;2023-05-16T02:04:52;99395.44;;;16.87;26.39
45991;BME280;31721;41.740;-88.000;2023-05-16T02:07:20;99396.44;;;16.79;26.51
45991;BME280;31721;41.740;-88.000;2023-05-16T02:09:49;99394.68;;;16.71;26.47
45991;BME280;31721;41.740;-88.000;2023-05-16T02:12:18;99395.83;;;16.59;27.03
45991;BME280;31721;41.740;-88.000;2023-05-16T02:14:46;99400.43;;;16.62;27.19
45991;BME280;31721;41.740;-88.000;2023-05-16T02:17:13;99398.77;;;16.53;27.30
45991;BME280;31721;41.740;-88.000;2023-05-16T02:19:41;99404.00;;;16.45;27.36
45991;BME280;31721;41.740;-88.000;2023-05-16T02:22:09;99402.07;;;16.37;27.59
45991;BME280;31721;41.740;-88.000;2023-05-16T02:24:37;99403.57;;;16.31;27.79
45991;BME280;31721;41.740;-88.000;2023-05-16T02:27:05;99402.84;;;16.25;27.61
45991;BME280;31721;41.740;-88.000;2023-05-16T02:29:34;99400.54;;;16.19;28.04
45991;BME280;31721;41.740;-88.000;2023-05-16T02:32:03;99401.53;;;16.16;27.82
45991;BME280;31721;41.740;-88.000;2023-05-16T02:34:31;99401.96;;;15.99;27.97
45991;BME280;31721;41.740;-88.000;2023-05-16T02:37:00;99401.04;;;15.99;28.36
45991;BME280;31721;41.740;-88.000;2023-05-16T02:39:28;99395.28;;;15.80;28.97
45991;BME280;31721;41.740;-88.000;2023-05-16T02:41:56;99393.54;;;15.79;28.95
45991;BME280;31721;41.740;-88.000;2023-05-16T02:44:25;99387.31;;;15.90;29.03
45991;BME280;31721;41.740;-88.000;2023-05-16T02:46:53;99385.09;;;15.77;29.28
45991;BME280;31721;41.740;-88.000;2023-05-16T02:49:21;99378.38;;;15.71;29.29
45991;BME280;31721;41.740;-88.000;2023-05-16T02:51:50;99382.06;;;15.60;29.52
45991;BME280;31721;41.740;-88.000;2023-05-16T02:54:17;99379.03;;;15.62;29.42
45991;BME280;31721;41.740;-88.000;2023-05-16T02:56:45;99376.40;;;15.63;29.50
45991;BME280;31721;41.740;-88.000;2023-05-16T02:59:13;99370.58;;;15.53;30.12
45991;BME280;31721;41.740;-88.000;2023-05-16T03:01:46;99369.81;;;15.51;30.29
45991;BME280;31721;41.740;-88.000;2023-05-16T03:04:14;99366.45;;;15.44;30.37
45991;BME280;31721;41.740;-88.000;2023-05-16T03:06:42;99368.41;;;15.37;30.27
45991;BME280;31721;41.740;-88.000;2023-05-16T03:09:10;99364.94;;;15.31;30.40
45991;BME280;31721;41.740;-88.000;2023-05-16T03:11:38;99361.91;;;15.26;30.19
45991;BME280;31721;41.740;-88.000;2023-05-16T03:14:05;99359.13;;;15.19;30.33
45991;BME280;31721;41.740;-88.000;2023-05-16T03:16:33;99359.33;;;15.23;30.82
45991;BME280;31721;41.740;-88.000;2023-05-16T03:19:01;99355.68;;;15.10;30.91
45991;BME280;31721;41.740;-88.000;2023-05-16T03:21:29;99352.54;;;14.97;30.74
45991;BME280;31721;41.740;-88.000;2023-05-16T03:23:58;99349.27;;;15.00;31.18
45991;BME280;31721;41.740;-88.000;2023-05-16T03:26:26;99344.02;;;14.93;31.14
45991;BME280;31721;41.740;-88.000;2023-05-16T03:28:53;99340.13;;;14.96;31.11
45991;BME280;31721;41.740;-88.000;2023-05-16T03:31:21;99335.42;;;14.90;31.27
45991;BME280;31721;41.740;-88.000;2023-05-16T03:33:49;99327.40;;;14.77;31.26
45991;BME280;31721;41.740;-88.000;2023-05-16T03:36:19;99325.33;;;14.79;31.51
45991;BME280;31721;41.740;-88.000;2023-05-16T03:38:47;99320.64;;;14.72;31.76
45991;BME280;31721;41.740;-88.000;2023-05-16T03:41:15;99315.58;;;14.67;32.15
45991;BME280;31721;41.740;-88.000;2023-05-16T03:43:43;99310.08;;;14.60;32.19
45991;BME280;31721;41.740;-88.000;2023-05-16T03:46:11;99305.70;;;14.52;32.44
45991;BME280;31721;41.740;-88.000;2023-05-16T03:48:39;99303.90;;;14.48;32.75
45991;BME280;31721;41.740;-88.000;2023-05-16T03:51:07;99298.93;;;14.42;33.19
45991;BME280;31721;41.740;-88.000;2023-05-16T03:53:37;99295.80;;;14.39;33.36
45991;BME280;31721;41.740;-88.000;2023-05-16T03:56:05;99290.23;;;14.45;33.54
45991;BME280;31721;41.740;-88.000;2023-05-16T03:58:33;99282.73;;;14.30;33.38
45991;BME280;31721;41.740;-88.000;2023-05-16T04:01:01;99277.39;;;14.23;33.50
45991;BME280;31721;41.740;-88.000;2023-05-16T04:03:29;99275.64;;;14.33;33.60
45991;BME280;31721;41.740;-88.000;2023-05-16T04:05:57;99268.88;;;14.21;33.90
45991;BME280;31721;41.740;-88.000;2023-05-16T04:08:25;99268.64;;;14.05;33.86
45991;BME280;31721;41.740;-88.000;2023-05-16T04:10:52;99265.09;;;14.07;33.98
45991;BME280;31721;41.740;-88.000;2023-05-16T04:13:20;99258.48;;;14.02;34.04
45991;BME280;31721;41.740;-88.000;2023-05-16T04:15:48;99255.08;;;13.98;34.25
45991;BME280;31721;41.740;-88.000;2023-05-16T04:18:16;99256.64;;;13.98;34.09
45991;BME280;31721;41.740;-88.000;2023-05-16T04:20:45;99260.38;;;13.94;34.61
45991;BME280;31721;41.740;-88.000;2023-05-16T04:23:12;99260.18;;;13.81;34.33
45991;BME280;31721;41.740;-88.000;2023-05-16T04:25:40;99261.53;;;13.74;34.24
45991;BME280;31721;41.740;-88.000;2023-05-16T04:28:08;99260.49;;;13.61;34.40
45991;BME280;31721;41.740;-88.000;2023-05-16T04:30:36;99259.83;;;13.67;34.56
45991;BME280;31721;41.740;-88.000;2023-05-16T04:33:04;99261.06;;;13.56;34.58
45991;BME280;31721;41.740;-88.000;2023-05-16T04:35:32;99260.95;;;13.60;34.56
45991;BME280;31721;41.740;-88.000;2023-05-16T04:38:00;99261.26;;;13.47;34.67
45991;BME280;31721;41.740;-88.000;2023-05-16T04:40:28;99259.62;;;13.44;34.66
45991;BME280;31721;41.740;-88.000;2023-05-16T04:42:56;99255.46;;;13.44;35.10
45991;BME280;31721;41.740;-88.000;2023-05-16T04:45:23;99252.08;;;13.34;35.00
45991;BME280;31721;41.740;-88.000;2023-05-16T04:47:51;99245.91;;;13.31;34.87
45991;BME280;31721;41.740;-88.000;2023-05-16T04:50:19;99243.13;;;13.28;35.02
45991;BME280;31721;41.740;-88.000;2023-05-16T04:52:46;99240.38;;;13.23;35.45
45991;BME280;31721;41.740;-88.000;2023-05-16T04:55:15;99234.71;;;13.22;35.51
45991;BME280;31721;41.740;-88.000;2023-05-16T04:57:43;99231.34;;;13.17;34.95
45991;BME280;31721;41.740;-88.000;2023-05-16T05:00:12;99228.20;;;13.15;35.18
45991;BME280;31721;41.740;-88.000;2023-05-16T05:02:39;99226.07;;;13.07;35.56
45991;BME280;31721;41.740;-88.000;2023-05-16T05:05:08;99225.32;;;13.07;35.81
45991;BME280;31721;41.740;-88.000;2023-05-16T05:07:36;99225.06;;;13.02;35.99
45991;BME280;31721;41.740;-88.000;2023-05-16T05:10:04;99220.15;;;13.01;36.54
45991;BME280;31721;41.740;-88.000;2023-05-16T05:12:33;99218.70;;;13.06;36.71
45991;BME280;31721;41.740;-88.000;2023-05-16T05:15:02;99220.61;;;12.95;36.94
45991;BME280;31721;41.740;-88.000;2023-05-16T05:17:29;99223.86;;;12.93;36.94
45991;BME280;31721;41.740;-88.000;2023-05-16T05:19:57;99220.43;;;12.87;36.91
45991;BME280;31721;41.740;-88.000;2023-05-16T05:22:25;99219.99;;;12.86;37.01
45991;BME280;31721;41.740;-88.000;2023-05-16T05:24:53;99219.17;;;12.80;37.27
45991;BME280;31721;41.740;-88.000;2023-05-16T05:27:21;99220.91;;;12.92;37.14
45991;BME280;31721;41.740;-88.000;2023-05-16T05:29:49;99217.47;;;12.80;37.61
45991;BME280;31721;41.740;-88.000;2023-05-16T05:32:17;99217.16;;;12.67;37.94
45991;BME280;31721;41.740;-88.000;2023-05-16T05:34:45;99213.42;;;12.82;38.17
45991;BME280;31721;41.740;-88.000;2023-05-16T05:37:13;99213.05;;;12.82;38.72
45991;BME280;31721;41.740;-88.000;2023-05-16T05:39:41;99211.73;;;12.78;38.85
45991;BME280;31721;41.740;-88.000;2023-05-16T05:42:08;99212.31;;;12.77;38.93
45991;BME280;31721;41.740;-88.000;2023-05-16T05:44:36;99207.69;;;12.74;39.30
45991;BME280;31721;41.740;-88.000;2023-05-16T05:47:05;99203.55;;;12.65;39.40
45991;BME280;31721;41.740;-88.000;2023-05-16T05:49:34;99199.16;;;12.61;39.30
45991;BME280;31721;41.740;-88.000;2023-05-16T05:52:01;99203.07;;;12.58;39.58
45991;BME280;31721;41.740;-88.000;2023-05-16T05:54:29;99204.68;;;12.59;39.60
45991;BME280;31721;41.740;-88.000;2023-05-16T05:56:56;99204.15;;;12.48;39.73
45991;BME280;31721;41.740;-88.000;2023-05-16T05:59:25;99203.04;;;12.47;39.90
45991;BME280;31721;41.740;-88.000;2023-05-16T06:01:53;99197.26;;;12.52;39.88
45991;BME280;31721;41.740;-88.000;2023-05-16T06:04:21;99191.93;;;12.55;40.02
45991;BME280;31721;41.740;-88.000;2023-05-16T06:06:48;99186.36;;;12.53;40.07
45991;BME280;31721;41.740;-88.000;2023-05-16T06:09:16;99187.33;;;12.44;40.08
45991;BME280;31721;41.740;-88.000;2023-05-16T06:11:44;99184.73;;;12.33;40.29
45991;BME280;31721;41.740;-88.000;2023-05-16T06:14:12;99183.14;;;12.45;40.19
45991;BME280;31721;41.740;-88.000;2023-05-16T06:16:40;99179.10;;;12.45;40.18
45991;BME280;31721;41.740;-88.000;2023-05-16T06:19:09;99181.12;;;12.39;40.11
45991;BME280;31721;41.740;-88.000;2023-05-16T06:21:37;99177.88;;;12.41;40.06
45991;BME280;31721;41.740;-88.000;2023-05-16T06:24:05;99173.05;;;12.40;40.22
45991;BME280;31721;41.740;-88.000;2023-05-16T06:26:34;99170.88;;;12.39;40.36
45991;BME280;31721;41.740;-88.000;2023-05-16T06:29:02;99166.87;;;12.31;40.54
45991;BME280;31721;41.740;-88.000;2023-05-16T06:31:30;99157.51;;;12.25;40.43
45991;BME280;31721;41.740;-88.000;2023-05-16T06:33:58;99157.20;;;12.31;40.77
45991;BME280;31721;41.740;-88.000;2023-05-16T06:36:26;99156.46;;;12.21;40.70
45991;BME280;31721;41.740;-88.000;2023-05-16T06:38:53;99154.92;;;12.17;40.53
45991;BME280;31721;41.740;-88.000;2023-05-16T06:41:21;99154.11;;;12.13;40.75
45991;BME280;31721;41.740;-88.000;2023-05-16T06:43:48;99152.37;;;12.19;40.57
45991;BME280;31721;41.740;-88.000;2023-05-16T06:46:16;99151.84;;;12.05;40.62
45991;BME280;31721;41.740;-88.000;2023-05-16T06:48:44;99148.63;;;12.05;40.96
45991;BME280;31721;41.740;-88.000;2023-05-16T06:51:11;99140.43;;;12.22;41.26
45991;BME280;31721;41.740;-88.000;2023-05-16T06:53:39;99133.96;;;12.15;41.18
45991;BME280;31721;41.740;-88.000;2023-05-16T06:56:06;99124.96;;;12.06;40.72
45991;BME280;31721;41.740;-88.000;2023-05-16T06:58:34;99117.15;;;12.07;41.09
45991;BME280;31721;41.740;-88.000;2023-05-16T07:01:02;99111.55;;;12.09;41.32
45991;BME280;31721;41.740;-88.000;2023-05-16T07:03:30;99109.49;;;12.26;41.18
45991;BME280;31721;41.740;-88.000;2023-05-16T07:05:57;99108.68;;;12.27;40.97
45991;BME280;31721;41.740;-88.000;2023-05-16T07:08:25;99099.68;;;12.21;41.05
45991;BME280;31721;41.740;-88.000;2023-05-16T07:10:52;99096.47;;;12.18;40.53
45991;BME280;31721;41.740;-88.000;2023-05-16T07:13:20;99089.70;;;12.21;40.68
45991;BME280;31721;41.740;-88.000;2023-05-16T07:15:48;99081.86;;;12.13;40.74
45991;BME280;31721;41.740;-88.000;2023-05-16T07:18:16;99077.26;;;12.24;40.74
45991;BME280;31721;41.740;-88.000;2023-05-16T07:20:43;99072.18;;;12.14;40.55
45991;BME280;31721;41.740;-88.000;2023-05-16T07:23:11;99068.47;;;12.28;40.62
45991;BME280;31721;41.740;-88.000;2023-05-16T07:25:39;99067.36;;;12.13;40.62
45991;BME280;31721;41.740;-88.000;2023-05-16T07:28:07;99063.76;;;12.29;40.67
45991;BME280;31721;41.740;-88.000;2023-05-16T07:30:34;99061.09;;;12.24;40.81
45991;BME280;31721;41.740;-88.000;2023-05-16T07:33:02;99057.68;;;12.17;40.97
45991;BME280;31721;41.740;-88.000;2023-05-16T07:35:30;99055.86;;;12.28;40.96
45991;BME280;31721;41.740;-88.000;2023-05-16T07:37:58;99053.22;;;12.21;40.93
45991;BME280;31721;41.740;-88.000;2023-05-16T07:40:26;99051.70;;;12.23;41.25
45991;BME280;31721;41.740;-88.000;2023-05-16T07:42:54;99048.37;;;12.24;41.24
45991;BME280;31721;41.740;-88.000;2023-05-16T07:45:22;99048.08;;;12.23;41.41
45991;BME280;31721;41.740;-88.000;2023-05-16T07:47:50;99044.37;;;12.26;41.82
45991;BME280;31721;41.740;-88.000;2023-05-16T07:50:17;99037.65;;;12.28;41.92
45991;BME280;31721;41.740;-88.000;2023-05-16T07:52:45;99031.86;;;12.31;41.84
45991;BME280;31721;41.740;-88.000;2023-05-16T07:55:13;99026.99;;;12.32;41.88
45991;BME280;31721;41.740;-88.000;2023-05-16T07:57:40;99025.02;;;12.32;41.45
45991;BME280;31721;41.740;-88.000;2023-05-16T08:00:10;99020.31;;;12.33;41.29
45991;BME280;31721;41.740;-88.000;2023-05-16T08:02:38;99019.78;;;12.34;41.11
45991;BME280;31721;41.740;-88.000;2023-05-16T08:05:06;99019.24;;;12.32;41.14
45991;BME280;31721;41.740;-88.000;2023-05-16T08:07:34;99018.78;;;12.34;41.43
45991;BME280;31721;41.740;-88.000;2023-05-16T08:10:08;99016.45;;;12.41;41.43
45991;BME280;31721;41.740;-88.000;2023-05-16T08:12:36;99015.28;;;12.30;41.61
45991;BME280;31721;41.740;-88.000;2023-05-16T08:15:05;99014.87;;;12.29;41.87
45991;BME280;31721;41.740;-88.000;2023-05-16T08:17:33;99016.13;;;12.31;42.46
45991;BME280;31721;41.740;-88.000;2023-05-16T08:20:00;99016.16;;;12.27;42.07
45991;BME280;31721;41.740;-88.000;2023-05-16T08:22:28;99016.23;;;12.25;41.98
45991;BME280;31721;41.740;-88.000;2023-05-16T08:24:55;99013.32;;;12.23;42.19
45991;BME280;31721;41.740;-88.000;2023-05-16T08:27:23;99010.76;;;12.23;42.22
45991;BME280;31721;41.740;-88.000;2023-05-16T08:29:51;99007.44;;;12.22;42.33
45991;BME280;31721;41.740;-88.000;2023-05-16T08:32:21;99004.97;;;12.22;42.23
45991;BME280;31721;41.740;-88.000;2023-05-16T08:34:49;99001.53;;;12.23;41.89
45991;BME280;31721;41.740;-88.000;2023-05-16T08:37:17;98999.75;;;12.31;41.76
45991;BME280;31721;41.740;-88.000;2023-05-16T08:39:45;98995.62;;;12.14;41.85
45991;BME280;31721;41.740;-88.000;2023-05-16T08:42:13;98994.89;;;12.33;41.67
45991;BME280;31721;41.740;-88.000;2023-05-16T08:44:41;98991.47;;;12.24;41.68
45991;BME280;31721;41.740;-88.000;2023-05-16T08:47:13;98991.21;;;12.25;41.76
45991;BME280;31721;41.740;-88.000;2023-05-16T08:49:47;98986.86;;;12.26;41.82
45991;BME280;31721;41.740;-88.000;2023-05-16T08:52:18;98986.62;;;12.29;41.70
45991;BME280;31721;41.740;-88.000;2023-05-16T08:54:48;98980.82;;;12.27;41.37
45991;BME280;31721;41.740;-88.000;2023-05-16T08:57:16;98979.27;;;12.28;41.41
45991;BME280;31721;41.740;-88.000;2023-05-16T08:59:44;98976.86;;;12.29;41.25
45991;BME280;31721;41.740;-88.000;2023-05-16T09:02:13;98978.09;;;12.29;40.94
45991;BME280;31721;41.740;-88.000;2023-05-16T09:04:42;98978.81;;;12.30;40.79
45991;BME280;31721;41.740;-88.000;2023-05-16T09:07:11;98974.34;;;12.27;40.70
45991;BME280;31721;41.740;-88.000;2023-05-16T09:09:38;98971.19;;;12.36;40.91
45991;BME280;31721;41.740;-88.000;2023-05-16T09:12:07;98965.32;;;12.38;41.23
45991;BME280;31721;41.740;-88.000;2023-05-16T09:14:34;98961.86;;;12.28;41.00
45991;BME280;31721;41.740;-88.000;2023-05-16T09:17:04;98957.04;;;12.29;41.10
45991;BME280;31721;41.740;-88.000;2023-05-16T09:19:37;98953.96;;;12.28;41.13
45991;BME280;31721;41.740;-88.000;2023-05-16T09:22:05;98947.99;;;12.26;41.08
45991;BME280;31721;41.740;-88.000;2023-05-16T09:24:37;98946.23;;;12.25;41.36
45991;BME280;31721;41.740;-88.000;2023-05-16T09:27:09;98945.09;;;12.24;41.51
45991;BME280;31721;41.740;-88.000;2023-05-16T09:29:39;98945.89;;;12.23;41.70
45991;BME280;31721;41.740;-88.000;2023-05-16T09:32:10;98943.09;;;12.23;41.74
45991;BME280;31721;41.740;-88.000;2023-05-16T09:34:42;98944.62;;;12.24;41.83
45991;BME280;31721;41.740;-88.000;2023-05-16T09:37:10;98945.08;;;12.26;41.88
45991;BME280;31721;41.740;-88.000;2023-05-16T09:39:40;98947.66;;;12.24;41.84
45991;BME280;31721;41.740;-88.000;2023-05-16T09:42:12;98943.43;;;12.22;41.97
45991;BME280;31721;41.740;-88.000;2023-05-16T09:44:41;98937.76;;;12.22;42.10
45991;BME280;31721;41.740;-88.000;2023-05-16T09:47:13;98936.60;;;12.28;41.95
45991;BME280;31721;41.740;-88.000;2023-05-16T09:49:41;98931.89;;;12.16;41.93
45991;BME280;31721;41.740;-88.000;2023-05-16T09:52:10;98927.89;;;12.15;42.20
45991;BME280;31721;41.740;-88.000;2023-05-16T09:54:39;98921.41;;;12.15;42.07
45991;BME280;31721;41.740;-88.000;2023-05-16T09:57:06;98921.67;;;12.14;41.92
45991;BME280;31721;41.740;-88.000;2023-05-16T09:59:36;98920.88;;;12.13;41.97
45991;BME280;31721;41.740;-88.000;2023-05-16T10:02:06;98917.40;;;12.10;42.02
45991;BME280;31721;41.740;-88.000;2023-05-16T10:04:34;98910.09;;;12.18;42.14
45991;BME280;31721;41.740;-88.000;2023-05-16T10:07:03;98905.12;;;12.09;42.38
45991;BME280;31721;41.740;-88.000;2023-05-16T10:09:32;98902.98;;;12.10;42.40
45991;BME280;31721;41.740;-88.000;2023-05-16T10:12:01;98901.09;;;12.10;42.37
45991;BME280;31721;41.740;-88.000;2023-05-16T10:14:33;98896.27;;;12.12;42.53
45991;BME280;31721;41.740;-88.000;2023-05-16T10:17:03;98895.70;;;12.22;42.27
45991;BME280;31721;41.740;-88.000;2023-05-16T10:19:32;98893.93;;;12.16;42.06
45991;BME280;31721;41.740;-88.000;2023-05-16T10:22:05;98893.30;;;12.21;42.30
45991;BME280;31721;41.740;-88.000;2023-05-16T10:24:38;98890.00;;;12.22;42.24
45991;BME280;31721;41.740;-88.000;2023-05-16T10:27:10;98888.16;;;12.23;42.58
45991;BME280;31721;41.740;-88.000;2023-05-16T10:29:39;98889.21;;;12.24;42.72
45991;BME280;31721;41.740;-88.000;2023-05-16T10:32:08;98885.32;;;12.26;42.70
45991;BME280;31721;41.740;-88.000;2023-05-16T10:34:37;98887.57;;;12.28;42.69
45991;BME280;31721;41.740;-88.000;2023-05-16T10:37:05;98886.81;;;12.30;42.59
45991;BME280;31721;41.740;-88.000;2023-05-16T10:39:34;98884.84;;;12.31;42.62
45991;BME280;31721;41.740;-88.000;2023-05-16T10:42:02;98883.76;;;12.32;42.89
45991;BME280;31721;41.740;-88.000;2023-05-16T10:44:32;98882.24;;;12.32;43.13
45991;BME280;31721;41.740;-88.000;2023-05-16T10:47:00;98883.31;;;12.33;43.42
45991;BME280;31721;41.740;-88.000;2023-05-16T10:49:27;98879.70;;;12.33;43.28
45991;BME280;31721;41.740;-88.000;2023-05-16T10:52:07;98876.21;;;12.34;43.14
45991;BME280;31721;41.740;-88.000;2023-05-16T10:54:36;98876.27;;;12.38;43.46
45991;BME280;31721;41.740;-88.000;2023-05-16T10:57:05;98875.41;;;12.44;43.56
45991;BME280;31721;41.740;-88.000;2023-05-16T10:59:41;98872.00;;;12.51;43.61
45991;BME280;31721;41.740;-88.000;2023-05-16T11:02:22;98872.00;;;12.57;43.56
45991;BME280;31721;41.740;-88.000;2023-05-16T11:04:51;98866.61;;;12.60;43.42
45991;BME280;31721;41.740;-88.000;2023-05-16T11:07:20;98862.71;;;12.67;43.37
45991;BME280;31721;41.740;-88.000;2023-05-16T11:10:07;98862.32;;;12.73;43.32
45991;BME280;31721;41.740;-88.000;2023-05-16T11:12:42;98860.13;;;12.81;43.33
45991;BME280;31721;41.740;-88.000;2023-05-16T11:15:25;98863.08;;;12.88;43.25
45991;BME280;31721;41.740;-88.000;2023-05-16T11:18:04;98863.10;;;12.96;43.32
45991;BME280;31721;41.740;-88.000;2023-05-16T11:20:34;98861.21;;;13.03;43.39
45991;BME280;31721;41.740;-88.000;2023-05-16T11:23:20;98859.32;;;13.01;43.33
45991;BME280;31721;41.740;-88.000;2023-05-16T11:25:51;98858.84;;;13.11;43.19
45991;BME280;31721;41.740;-88.000;2023-05-16T11:28:20;98857.11;;;13.05;43.24
45991;BME280;31721;41.740;-88.000;2023-05-16T11:30:49;98856.29;;;13.18;43.39
45991;BME280;31721;41.740;-88.000;2023-05-16T11:33:17;98853.30;;;13.22;43.50
45991;BME280;31721;41.740;-88.000;2023-05-16T11:36:00;98850.83;;;13.26;43.52
45991;BME280;31721;41.740;-88.000;2023-05-16T11:38:30;98850.12;;;13.26;43.72
45991;BME280;31721;41.740;-88.000;2023-05-16T11:41:06;98847.12;;;13.25;43.50
45991;BME280;31721;41.740;-88.000;2023-05-16T11:43:38;98843.85;;;13.39;43.44
45991;BME280;31721;41.740;-88.000;2023-05-16T11:46:05;98842.17;;;13.36;43.40
45991;BME280;31721;41.740;-88.000;2023-05-16T11:48:34;98841.71;;;13.42;43.49
45991;BME280;31721;41.740;-88.000;2023-05-16T11:51:03;98836.39;;;13.47;43.75
45991;BME280;31721;41.740;-88.000;2023-05-16T11:53:31;98835.62;;;13.54;43.69
45991;BME280;31721;41.740;-88.000;2023-05-16T11:55:59;98838.73;;;13.53;43.54
45991;BME280;31721;41.740;-88.000;2023-05-16T11:58:27;98838.39;;;13.68;43.67
45991;BME280;31721;41.740;-88.000;2023-05-16T12:00:56;98843.21;;;13.77;43.64
45991;BME280;31721;41.740;-88.000;2023-05-16T12:03:25;98842.94;;;13.72;43.51
45991;BME280;31721;41.740;-88.000;2023-05-16T12:05:53;98843.08;;;13.94;43.36
45991;BME280;31721;41.740;-88.000;2023-05-16T12:08:22;98842.32;;;13.98;43.39
45991;BME280;31721;41.740;-88.000;2023-05-16T12:10:51;98843.03;;;14.06;43.31
45991;BME280;31721;41.740;-88.000;2023-05-16T12:13:20;98841.15;;;14.20;43.36
45991;BME280;31721;41.740;-88.000;2023-05-16T12:15:50;98842.63;;;14.25;43.17
45991;BME280;31721;41.740;-88.000;2023-05-16T12:18:18;98838.86;;;14.26;43.19
45991;BME280;31721;41.740;-88.000;2023-05-16T12:20:47;98834.33;;;14.34;43.53
45991;BME280;31721;41.740;-88.000;2023-05-16T12:23:15;98834.55;;;14.30;43.17
45991;BME280;31721;41.740;-88.000;2023-05-16T12:25:45;98832.73;;;14.33;43.18
45991;BME280;31721;41.740;-88.000;2023-05-16T12:28:15;98830.49;;;14.39;43.36
45991;BME280;31721;41.740;-88.000;2023-05-16T12:30:44;98828.37;;;14.44;43.50
45991;BME280;31721;41.740;-88.000;2023-05-16T12:33:14;98825.05;;;14.54;43.20
45991;BME280;31721;41.740;-88.000;2023-05-16T12:35:43;98822.88;;;14.74;42.85
45991;BME280;31721;41.740;-88.000;2023-05-16T12:38:13;98814.87;;;14.80;42.58
45991;BME280;31721;41.740;-88.000;2023-05-16T12:40:42;98812.95;;;15.02;42.02
45991;BME280;31721;41.740;-88.000;2023-05-16T12:43:14;98806.53;;;15.02;41.92
45991;BME280;31721;41.740;-88.000;2023-05-16T12:45:43;98804.59;;;14.86;42.41
45991;BME280;31721;41.740;-88.000;2023-05-16T12:48:15;98801.19;;;15.09;42.48
45991;BME280;31721;41.740;-88.000;2023-05-16T12:50:44;98798.71;;;14.95;42.21